sensor_id;sensor_type;location;lat;lon;timestamp;temperature;humidity
20479;DHT22;10398;52.490;13.434;2022-07-06T00:01:33;21.60;83.20
20479;DHT22;10398;52.490;13.434;2022-07-06T00:04:00;21.50;83.90
20479;DHT22;10398;52.490;13.434;2022-07-06T00:06:26;21.50;84.20
20479;DHT22;10398;52.490;13.434;2022-07-06T00:08:51;21.50;84.00
20479;DHT22;10398;52.490;13.434;2022-07-06T00:11:17;21.40;84.10
20479;DHT22;10398;52.490;13.434;2022-07-06T00:13:43;21.40;84.60
20479;DHT22;10398;52.490;13.434;2022-07-06T00:16:08;21.40;84.90
20479;DHT22;10398;52.490;13.434;2022-07-06T00:18:34;21.40;85.10
20479;DHT22;10398;52.490;13.434;2022-07-06T00:21:00;21.30;85.40
20479;DHT22;10398;52.490;13.434;2022-07-06T00:23:25;21.30;85.90
20479;DHT22;10398;52.490;13.434;2022-07-06T00:25:51;21.20;85.70
20479;DHT22;10398;52.490;13.434;2022-07-06T00:28:17;21.20;86.10
20479;DHT22;10398;52.490;13.434;2022-07-06T00:30:42;21.10;86.40
20479;DHT22;10398;52.490;13.434;2022-07-06T00:33:08;21.10;86.40
20479;DHT22;10398;52.490;13.434;2022-07-06T00:35:34;21.00;86.60
20479;DHT22;10398;52.490;13.434;2022-07-06T00:38:00;20.90;87.30
20479;DHT22;10398;52.490;13.434;2022-07-06T00:40:26;20.90;87.40
20479;DHT22;10398;52.490;13.434;2022-07-06T00:42:52;20.80;87.60
20479;DHT22;10398;52.490;13.434;2022-07-06T00:45:19;20.90;87.90
20479;DHT22;10398;52.490;13.434;2022-07-06T00:47:45;20.90;88.30
20479;DHT22;10398;52.490;13.434;2022-07-06T00:50:13;20.90;87.80
20479;DHT22;10398;52.490;13.434;2022-07-06T00:52:55;20.80;87.70
20479;DHT22;10398;52.490;13.434;2022-07-06T00:55:24;20.80;88.30
20479;DHT22;10398;52.490;13.434;2022-07-06T00:57:50;20.80;88.30
20479;DHT22;10398;52.490;13.434;2022-07-06T01:00:18;20.90;88.50
20479;DHT22;10398;52.490;13.434;2022-07-06T01:02:45;20.90;88.50
20479;DHT22;10398;52.490;13.434;2022-07-06T01:05:12;20.90;88.30
20479;DHT22;10398;52.490;13.434;2022-07-06T01:07:39;20.90;88.50
20479;DHT22;10398;52.490;13.434;2022-07-06T01:10:07;20.90;88.50
20479;DHT22;10398;52.490;13.434;2022-07-06T01:12:35;20.80;88.70
20479;DHT22;10398;52.490;13.434;2022-07-06T01:15:04;20.70;89.20
20479;DHT22;10398;52.490;13.434;2022-07-06T01:17:30;20.80;89.10
20479;DHT22;10398;52.490;13.434;2022-07-06T01:19:56;20.70;89.10
20479;DHT22;10398;52.490;13.434;2022-07-06T01:22:22;20.60;89.50
20479;DHT22;10398;52.490;13.434;2022-07-06T01:24:47;20.60;89.90
20479;DHT22;10398;52.490;13.434;2022-07-06T01:27:13;20.60;90.20
20479;DHT22;10398;52.490;13.434;2022-07-06T01:29:38;20.60;90.10
20479;DHT22;10398;52.490;13.434;2022-07-06T01:32:04;20.60;90.20
20479;DHT22;10398;52.490;13.434;2022-07-06T01:34:30;20.50;90.10
20479;DHT22;10398;52.490;13.434;2022-07-06T01:36:55;20.60;90.00
20479;DHT22;10398;52.490;13.434;2022-07-06T01:39:21;20.70;90.00
20479;DHT22;10398;52.490;13.434;2022-07-06T01:41:47;20.70;90.10
20479;DHT22;10398;52.490;13.434;2022-07-06T01:44:12;20.70;89.90
20479;DHT22;10398;52.490;13.434;2022-07-06T01:46:39;20.70;90.30
20479;DHT22;10398;52.490;13.434;2022-07-06T01:49:05;20.60;89.60
20479;DHT22;10398;52.490;13.434;2022-07-06T01:51:31;20.60;90.00
20479;DHT22;10398;52.490;13.434;2022-07-06T01:53:57;20.60;89.80
20479;DHT22;10398;52.490;13.434;2022-07-06T01:56:23;20.60;90.10
20479;DHT22;10398;52.490;13.434;2022-07-06T01:58:49;20.60;89.90
20479;DHT22;10398;52.490;13.434;2022-07-06T02:01:17;20.50;90.00
20479;DHT22;10398;52.490;13.434;2022-07-06T02:03:43;20.60;90.00
20479;DHT22;10398;52.490;13.434;2022-07-06T02:06:09;20.60;89.90
20479;DHT22;10398;52.490;13.434;2022-07-06T02:08:36;20.60;89.70
20479;DHT22;10398;52.490;13.434;2022-07-06T02:11:05;20.50;90.10
20479;DHT22;10398;52.490;13.434;2022-07-06T02:13:31;20.50;90.10
20479;DHT22;10398;52.490;13.434;2022-07-06T02:15:57;20.60;89.80
20479;DHT22;10398;52.490;13.434;2022-07-06T02:18:23;20.60;89.50
20479;DHT22;10398;52.490;13.434;2022-07-06T02:20:48;20.70;89.40
20479;DHT22;10398;52.490;13.434;2022-07-06T02:23:14;20.70;88.40
20479;DHT22;10398;52.490;13.434;2022-07-06T02:25:39;20.60;88.30
20479;DHT22;10398;52.490;13.434;2022-07-06T02:28:05;20.60;89.00
20479;DHT22;10398;52.490;13.434;2022-07-06T02:30:31;20.60;89.90
20479;DHT22;10398;52.490;13.434;2022-07-06T02:32:56;20.40;90.40
20479;DHT22;10398;52.490;13.434;2022-07-06T02:35:22;20.30;91.00
20479;DHT22;10398;52.490;13.434;2022-07-06T02:37:48;20.30;91.10
20479;DHT22;10398;52.490;13.434;2022-07-06T02:40:13;20.30;91.50
20479;DHT22;10398;52.490;13.434;2022-07-06T02:42:39;20.20;91.70
20479;DHT22;10398;52.490;13.434;2022-07-06T02:45:05;20.30;91.90
20479;DHT22;10398;52.490;13.434;2022-07-06T02:47:31;20.30;92.10
20479;DHT22;10398;52.490;13.434;2022-07-06T02:49:56;20.30;92.70
20479;DHT22;10398;52.490;13.434;2022-07-06T02:52:22;20.30;93.30
20479;DHT22;10398;52.490;13.434;2022-07-06T02:54:48;20.30;93.40
20479;DHT22;10398;52.490;13.434;2022-07-06T02:57:15;20.20;94.00
20479;DHT22;10398;52.490;13.434;2022-07-06T02:59:40;20.00;94.50
20479;DHT22;10398;52.490;13.434;2022-07-06T03:02:07;19.90;94.80
20479;DHT22;10398;52.490;13.434;2022-07-06T03:04:32;19.90;95.40
20479;DHT22;10398;52.490;13.434;2022-07-06T03:06:58;19.90;95.50
20479;DHT22;10398;52.490;13.434;2022-07-06T03:09:24;19.70;95.90
20479;DHT22;10398;52.490;13.434;2022-07-06T03:11:50;19.60;96.40
20479;DHT22;10398;52.490;13.434;2022-07-06T03:14:15;19.50;97.10
20479;DHT22;10398;52.490;13.434;2022-07-06T03:16:41;19.50;97.30
20479;DHT22;10398;52.490;13.434;2022-07-06T03:19:06;19.50;97.70
20479;DHT22;10398;52.490;13.434;2022-07-06T03:21:32;19.50;97.10
20479;DHT22;10398;52.490;13.434;2022-07-06T03:23:58;19.50;97.20
20479;DHT22;10398;52.490;13.434;2022-07-06T03:26:24;19.50;97.40
20479;DHT22;10398;52.490;13.434;2022-07-06T03:28:49;19.40;97.50
20479;DHT22;10398;52.490;13.434;2022-07-06T03:31:15;19.30;98.00
20479;DHT22;10398;52.490;13.434;2022-07-06T03:33:41;19.30;98.10
20479;DHT22;10398;52.490;13.434;2022-07-06T03:36:06;19.20;98.10
20479;DHT22;10398;52.490;13.434;2022-07-06T03:38:33;19.10;98.20
20479;DHT22;10398;52.490;13.434;2022-07-06T03:40:59;19.20;98.70
20479;DHT22;10398;52.490;13.434;2022-07-06T03:43:24;19.20;98.40
20479;DHT22;10398;52.490;13.434;2022-07-06T03:45:50;19.20;98.50
20479;DHT22;10398;52.490;13.434;2022-07-06T03:48:15;19.20;98.30
20479;DHT22;10398;52.490;13.434;2022-07-06T03:50:41;19.20;98.10
20479;DHT22;10398;52.490;13.434;2022-07-06T03:53:07;19.10;98.10
20479;DHT22;10398;52.490;13.434;2022-07-06T03:55:32;19.10;98.30
20479;DHT22;10398;52.490;13.434;2022-07-06T03:57:58;19.00;98.40
20479;DHT22;10398;52.490;13.434;2022-07-06T04:00:24;19.00;98.40
20479;DHT22;10398;52.490;13.434;2022-07-06T04:02:49;18.90;98.40
20479;DHT22;10398;52.490;13.434;2022-07-06T04:05:15;19.00;98.50
20479;DHT22;10398;52.490;13.434;2022-07-06T04:07:43;19.00;98.40
20479;DHT22;10398;52.490;13.434;2022-07-06T04:10:08;19.00;98.20
20479;DHT22;10398;52.490;13.434;2022-07-06T04:12:40;19.00;98.40
20479;DHT22;10398;52.490;13.434;2022-07-06T04:15:07;19.10;98.20
20479;DHT22;10398;52.490;13.434;2022-07-06T04:17:32;19.00;98.10
20479;DHT22;10398;52.490;13.434;2022-07-06T04:20:20;19.00;98.40
20479;DHT22;10398;52.490;13.434;2022-07-06T04:22:46;19.00;98.50
20479;DHT22;10398;52.490;13.434;2022-07-06T04:25:12;19.00;98.40
20479;DHT22;10398;52.490;13.434;2022-07-06T04:27:38;18.90;98.00
20479;DHT22;10398;52.490;13.434;2022-07-06T04:30:05;18.90;98.40
20479;DHT22;10398;52.490;13.434;2022-07-06T04:32:31;18.90;98.20
20479;DHT22;10398;52.490;13.434;2022-07-06T04:34:57;18.90;98.20
20479;DHT22;10398;52.490;13.434;2022-07-06T04:37:23;18.90;98.10
20479;DHT22;10398;52.490;13.434;2022-07-06T04:39:49;18.80;98.00
20479;DHT22;10398;52.490;13.434;2022-07-06T04:42:14;18.80;98.40
20479;DHT22;10398;52.490;13.434;2022-07-06T04:44:40;18.70;98.20
20479;DHT22;10398;52.490;13.434;2022-07-06T04:47:06;18.70;98.50
20479;DHT22;10398;52.490;13.434;2022-07-06T04:49:31;18.70;98.70
20479;DHT22;10398;52.490;13.434;2022-07-06T04:51:58;18.70;98.90
20479;DHT22;10398;52.490;13.434;2022-07-06T04:54:23;18.70;99.10
20479;DHT22;10398;52.490;13.434;2022-07-06T04:56:49;18.80;98.90
20479;DHT22;10398;52.490;13.434;2022-07-06T04:59:15;18.80;98.70
20479;DHT22;10398;52.490;13.434;2022-07-06T05:01:40;18.90;98.30
20479;DHT22;10398;52.490;13.434;2022-07-06T05:04:07;18.90;98.20
20479;DHT22;10398;52.490;13.434;2022-07-06T05:06:33;18.90;98.60
20479;DHT22;10398;52.490;13.434;2022-07-06T05:08:58;18.80;98.30
20479;DHT22;10398;52.490;13.434;2022-07-06T05:11:27;18.80;98.40
20479;DHT22;10398;52.490;13.434;2022-07-06T05:13:53;18.80;98.30
20479;DHT22;10398;52.490;13.434;2022-07-06T05:16:20;18.80;98.60
20479;DHT22;10398;52.490;13.434;2022-07-06T05:18:45;18.80;98.50
20479;DHT22;10398;52.490;13.434;2022-07-06T05:21:11;18.90;98.60
20479;DHT22;10398;52.490;13.434;2022-07-06T05:23:37;18.90;98.60
20479;DHT22;10398;52.490;13.434;2022-07-06T05:26:02;18.90;98.40
20479;DHT22;10398;52.490;13.434;2022-07-06T05:28:28;18.90;98.40
20479;DHT22;10398;52.490;13.434;2022-07-06T05:30:53;18.90;98.50
20479;DHT22;10398;52.490;13.434;2022-07-06T05:33:19;18.80;98.10
20479;DHT22;10398;52.490;13.434;2022-07-06T05:35:45;18.90;98.30
20479;DHT22;10398;52.490;13.434;2022-07-06T05:38:10;18.90;98.40
20479;DHT22;10398;52.490;13.434;2022-07-06T05:40:36;18.90;98.20
20479;DHT22;10398;52.490;13.434;2022-07-06T05:43:02;19.00;98.20
20479;DHT22;10398;52.490;13.434;2022-07-06T05:45:28;19.00;97.80
20479;DHT22;10398;52.490;13.434;2022-07-06T05:47:54;19.00;97.70
20479;DHT22;10398;52.490;13.434;2022-07-06T05:50:39;18.90;98.00
20479;DHT22;10398;52.490;13.434;2022-07-06T05:53:05;18.90;97.70
20479;DHT22;10398;52.490;13.434;2022-07-06T05:55:31;18.90;97.60
20479;DHT22;10398;52.490;13.434;2022-07-06T05:57:57;18.90;97.90
20479;DHT22;10398;52.490;13.434;2022-07-06T06:00:24;19.00;97.80
20479;DHT22;10398;52.490;13.434;2022-07-06T06:02:50;19.00;97.80
20479;DHT22;10398;52.490;13.434;2022-07-06T06:05:16;19.00;97.80
20479;DHT22;10398;52.490;13.434;2022-07-06T06:07:43;19.00;97.70
20479;DHT22;10398;52.490;13.434;2022-07-06T06:10:10;19.10;97.80
20479;DHT22;10398;52.490;13.434;2022-07-06T06:12:37;19.10;97.60
20479;DHT22;10398;52.490;13.434;2022-07-06T06:15:04;19.20;97.60
20479;DHT22;10398;52.490;13.434;2022-07-06T06:17:30;19.20;97.20
20479;DHT22;10398;52.490;13.434;2022-07-06T06:19:55;19.30;97.40
20479;DHT22;10398;52.490;13.434;2022-07-06T06:22:21;19.20;97.00
20479;DHT22;10398;52.490;13.434;2022-07-06T06:24:46;19.20;97.00
20479;DHT22;10398;52.490;13.434;2022-07-06T06:27:12;19.20;97.00
20479;DHT22;10398;52.490;13.434;2022-07-06T06:29:38;19.20;97.40
20479;DHT22;10398;52.490;13.434;2022-07-06T06:32:04;19.20;97.20
20479;DHT22;10398;52.490;13.434;2022-07-06T06:34:31;19.30;97.50
20479;DHT22;10398;52.490;13.434;2022-07-06T06:36:57;19.30;97.50
20479;DHT22;10398;52.490;13.434;2022-07-06T06:39:23;19.30;97.40
20479;DHT22;10398;52.490;13.434;2022-07-06T06:41:49;19.30;97.30
20479;DHT22;10398;52.490;13.434;2022-07-06T06:44:14;19.50;97.10
20479;DHT22;10398;52.490;13.434;2022-07-06T06:46:41;19.60;96.90
20479;DHT22;10398;52.490;13.434;2022-07-06T06:49:06;19.70;97.10
20479;DHT22;10398;52.490;13.434;2022-07-06T06:51:32;19.70;96.50
20479;DHT22;10398;52.490;13.434;2022-07-06T06:53:58;19.50;96.70
20479;DHT22;10398;52.490;13.434;2022-07-06T06:56:24;19.50;97.20
20479;DHT22;10398;52.490;13.434;2022-07-06T06:58:49;19.40;97.10
20479;DHT22;10398;52.490;13.434;2022-07-06T07:01:15;19.40;97.40
20479;DHT22;10398;52.490;13.434;2022-07-06T07:03:41;19.40;97.00
20479;DHT22;10398;52.490;13.434;2022-07-06T07:06:06;19.40;97.40
20479;DHT22;10398;52.490;13.434;2022-07-06T07:08:32;19.50;97.40
20479;DHT22;10398;52.490;13.434;2022-07-06T07:10:58;19.60;97.10
20479;DHT22;10398;52.490;13.434;2022-07-06T07:13:23;19.70;97.10
20479;DHT22;10398;52.490;13.434;2022-07-06T07:15:49;19.70;95.90
20479;DHT22;10398;52.490;13.434;2022-07-06T07:18:15;19.70;95.90
20479;DHT22;10398;52.490;13.434;2022-07-06T07:20:40;19.60;96.00
20479;DHT22;10398;52.490;13.434;2022-07-06T07:23:06;19.70;96.10
20479;DHT22;10398;52.490;13.434;2022-07-06T07:25:31;19.60;95.80
20479;DHT22;10398;52.490;13.434;2022-07-06T07:27:57;19.80;96.20
20479;DHT22;10398;52.490;13.434;2022-07-06T07:30:23;19.90;95.70
20479;DHT22;10398;52.490;13.434;2022-07-06T07:32:48;19.90;95.50
20479;DHT22;10398;52.490;13.434;2022-07-06T07:35:14;20.00;95.50
20479;DHT22;10398;52.490;13.434;2022-07-06T07:37:39;19.90;94.90
20479;DHT22;10398;52.490;13.434;2022-07-06T07:40:05;20.00;95.00
20479;DHT22;10398;52.490;13.434;2022-07-06T07:42:31;20.00;94.30
20479;DHT22;10398;52.490;13.434;2022-07-06T07:44:58;19.90;93.80
20479;DHT22;10398;52.490;13.434;2022-07-06T07:47:23;19.80;93.60
20479;DHT22;10398;52.490;13.434;2022-07-06T07:49:49;19.80;93.60
20479;DHT22;10398;52.490;13.434;2022-07-06T07:52:14;19.80;94.00
20479;DHT22;10398;52.490;13.434;2022-07-06T07:54:40;19.80;93.90
20479;DHT22;10398;52.490;13.434;2022-07-06T07:57:06;19.80;93.00
20479;DHT22;10398;52.490;13.434;2022-07-06T07:59:32;19.90;93.00
20479;DHT22;10398;52.490;13.434;2022-07-06T08:01:57;19.80;91.70
20479;DHT22;10398;52.490;13.434;2022-07-06T08:04:23;19.80;91.90
20479;DHT22;10398;52.490;13.434;2022-07-06T08:06:48;19.70;91.50
20479;DHT22;10398;52.490;13.434;2022-07-06T08:09:14;19.60;91.40
20479;DHT22;10398;52.490;13.434;2022-07-06T08:11:42;19.70;91.60
20479;DHT22;10398;52.490;13.434;2022-07-06T08:14:08;19.70;91.50
20479;DHT22;10398;52.490;13.434;2022-07-06T08:16:33;19.70;91.60
20479;DHT22;10398;52.490;13.434;2022-07-06T08:18:59;19.70;91.60
20479;DHT22;10398;52.490;13.434;2022-07-06T08:21:25;19.80;94.10
20479;DHT22;10398;52.490;13.434;2022-07-06T08:23:50;19.90;92.20
20479;DHT22;10398;52.490;13.434;2022-07-06T08:26:16;20.00;92.10
20479;DHT22;10398;52.490;13.434;2022-07-06T08:28:42;20.10;91.80
20479;DHT22;10398;52.490;13.434;2022-07-06T08:31:08;20.00;90.80
20479;DHT22;10398;52.490;13.434;2022-07-06T08:33:33;20.00;91.20
20479;DHT22;10398;52.490;13.434;2022-07-06T08:35:59;20.00;91.30
20479;DHT22;10398;52.490;13.434;2022-07-06T08:38:25;19.90;90.10
20479;DHT22;10398;52.490;13.434;2022-07-06T08:40:51;19.90;90.50
20479;DHT22;10398;52.490;13.434;2022-07-06T08:43:17;20.00;90.50
20479;DHT22;10398;52.490;13.434;2022-07-06T08:45:42;20.10;91.10
20479;DHT22;10398;52.490;13.434;2022-07-06T08:48:12;20.20;91.30
20479;DHT22;10398;52.490;13.434;2022-07-06T08:50:38;20.30;90.50
20479;DHT22;10398;52.490;13.434;2022-07-06T08:53:04;20.10;88.10
20479;DHT22;10398;52.490;13.434;2022-07-06T08:55:30;20.10;89.90
20479;DHT22;10398;52.490;13.434;2022-07-06T08:57:57;20.00;87.20
20479;DHT22;10398;52.490;13.434;2022-07-06T09:00:24;20.10;83.70
20479;DHT22;10398;52.490;13.434;2022-07-06T09:02:50;20.20;86.20
20479;DHT22;10398;52.490;13.434;2022-07-06T09:05:17;20.30;87.10
20479;DHT22;10398;52.490;13.434;2022-07-06T09:07:45;20.50;88.30
20479;DHT22;10398;52.490;13.434;2022-07-06T09:10:15;20.50;84.70
20479;DHT22;10398;52.490;13.434;2022-07-06T09:12:42;20.50;85.50
20479;DHT22;10398;52.490;13.434;2022-07-06T09:15:08;20.50;85.80
20479;DHT22;10398;52.490;13.434;2022-07-06T09:17:38;20.50;84.90
20479;DHT22;10398;52.490;13.434;2022-07-06T09:20:15;20.40;84.10
20479;DHT22;10398;52.490;13.434;2022-07-06T09:22:41;20.50;85.00
20479;DHT22;10398;52.490;13.434;2022-07-06T09:25:10;20.40;83.70
20479;DHT22;10398;52.490;13.434;2022-07-06T09:27:41;20.40;83.70
20479;DHT22;10398;52.490;13.434;2022-07-06T09:30:09;20.50;84.20
20479;DHT22;10398;52.490;13.434;2022-07-06T09:32:44;20.50;81.70
20479;DHT22;10398;52.490;13.434;2022-07-06T09:35:37;20.40;80.30
20479;DHT22;10398;52.490;13.434;2022-07-06T09:38:07;20.50;79.20
20479;DHT22;10398;52.490;13.434;2022-07-06T09:40:39;20.60;79.10
20479;DHT22;10398;52.490;13.434;2022-07-06T09:43:13;20.60;77.30
20479;DHT22;10398;52.490;13.434;2022-07-06T09:45:45;20.60;75.70
20479;DHT22;10398;52.490;13.434;2022-07-06T09:48:14;20.70;77.10
20479;DHT22;10398;52.490;13.434;2022-07-06T09:50:45;20.70;77.60
20479;DHT22;10398;52.490;13.434;2022-07-06T09:53:12;20.60;77.30
20479;DHT22;10398;52.490;13.434;2022-07-06T09:55:38;20.60;76.70
20479;DHT22;10398;52.490;13.434;2022-07-06T09:58:04;20.50;76.90
20479;DHT22;10398;52.490;13.434;2022-07-06T10:00:30;20.40;77.40
20479;DHT22;10398;52.490;13.434;2022-07-06T10:02:56;20.20;77.00
20479;DHT22;10398;52.490;13.434;2022-07-06T10:05:23;20.20;78.50
20479;DHT22;10398;52.490;13.434;2022-07-06T10:07:57;20.30;79.70
20479;DHT22;10398;52.490;13.434;2022-07-06T10:10:28;20.40;81.20
20479;DHT22;10398;52.490;13.434;2022-07-06T10:12:56;20.40;80.80
20479;DHT22;10398;52.490;13.434;2022-07-06T10:15:26;20.50;82.20
20479;DHT22;10398;52.490;13.434;2022-07-06T10:17:53;20.70;82.40
20479;DHT22;10398;52.490;13.434;2022-07-06T10:20:20;20.70;81.70
20479;DHT22;10398;52.490;13.434;2022-07-06T10:22:48;20.90;81.90
20479;DHT22;10398;52.490;13.434;2022-07-06T10:25:16;20.90;81.00
20479;DHT22;10398;52.490;13.434;2022-07-06T10:27:43;20.90;81.80
20479;DHT22;10398;52.490;13.434;2022-07-06T10:30:10;21.00;82.30
20479;DHT22;10398;52.490;13.434;2022-07-06T10:32:37;20.90;82.40
20479;DHT22;10398;52.490;13.434;2022-07-06T10:35:04;20.90;82.10
20479;DHT22;10398;52.490;13.434;2022-07-06T10:37:30;20.90;83.60
20479;DHT22;10398;52.490;13.434;2022-07-06T10:39:58;20.80;83.10
20479;DHT22;10398;52.490;13.434;2022-07-06T10:42:47;20.80;83.50
20479;DHT22;10398;52.490;13.434;2022-07-06T10:50:36;20.90;83.40
20479;DHT22;10398;52.490;13.434;2022-07-06T10:53:02;20.90;83.80
20479;DHT22;10398;52.490;13.434;2022-07-06T10:55:37;21.00;83.50
20479;DHT22;10398;52.490;13.434;2022-07-06T10:58:03;21.10;82.90
20479;DHT22;10398;52.490;13.434;2022-07-06T11:00:52;21.30;83.20
20479;DHT22;10398;52.490;13.434;2022-07-06T11:03:33;21.30;82.60
20479;DHT22;10398;52.490;13.434;2022-07-06T11:06:11;21.40;84.00
20479;DHT22;10398;52.490;13.434;2022-07-06T11:11:26;21.50;78.90
20479;DHT22;10398;52.490;13.434;2022-07-06T11:14:08;21.60;80.40
20479;DHT22;10398;52.490;13.434;2022-07-06T11:17:00;21.70;76.60
20479;DHT22;10398;52.490;13.434;2022-07-06T11:19:27;21.70;77.60
20479;DHT22;10398;52.490;13.434;2022-07-06T11:21:59;21.60;77.10
20479;DHT22;10398;52.490;13.434;2022-07-06T11:24:32;21.60;78.80
20479;DHT22;10398;52.490;13.434;2022-07-06T11:27:00;21.60;79.20
20479;DHT22;10398;52.490;13.434;2022-07-06T11:29:28;21.60;79.40
20479;DHT22;10398;52.490;13.434;2022-07-06T11:31:56;21.70;79.90
20479;DHT22;10398;52.490;13.434;2022-07-06T11:34:33;21.60;79.80
20479;DHT22;10398;52.490;13.434;2022-07-06T11:37:02;21.50;80.10
20479;DHT22;10398;52.490;13.434;2022-07-06T11:39:32;21.50;80.40
20479;DHT22;10398;52.490;13.434;2022-07-06T11:41:59;21.50;80.40
20479;DHT22;10398;52.490;13.434;2022-07-06T11:44:26;21.40;79.60
20479;DHT22;10398;52.490;13.434;2022-07-06T11:46:53;21.40;79.40
20479;DHT22;10398;52.490;13.434;2022-07-06T11:49:21;21.40;80.50
20479;DHT22;10398;52.490;13.434;2022-07-06T11:51:47;21.40;79.40
20479;DHT22;10398;52.490;13.434;2022-07-06T11:54:20;21.40;80.00
20479;DHT22;10398;52.490;13.434;2022-07-06T11:56:56;21.40;79.90
20479;DHT22;10398;52.490;13.434;2022-07-06T11:59:27;21.60;81.10
20479;DHT22;10398;52.490;13.434;2022-07-06T12:02:03;21.70;78.80
20479;DHT22;10398;52.490;13.434;2022-07-06T12:04:31;21.80;79.70
20479;DHT22;10398;52.490;13.434;2022-07-06T12:07:06;21.90;79.70
20479;DHT22;10398;52.490;13.434;2022-07-06T12:09:37;22.10;79.50
20479;DHT22;10398;52.490;13.434;2022-07-06T12:12:04;22.20;77.10
20479;DHT22;10398;52.490;13.434;2022-07-06T12:14:31;22.20;77.50
20479;DHT22;10398;52.490;13.434;2022-07-06T12:17:06;22.20;78.00
20479;DHT22;10398;52.490;13.434;2022-07-06T12:19:32;22.10;77.20
20479;DHT22;10398;52.490;13.434;2022-07-06T12:21:59;22.10;77.50
20479;DHT22;10398;52.490;13.434;2022-07-06T12:24:28;22.10;77.20
20479;DHT22;10398;52.490;13.434;2022-07-06T12:26:54;22.10;77.60
20479;DHT22;10398;52.490;13.434;2022-07-06T12:29:21;22.00;77.60
20479;DHT22;10398;52.490;13.434;2022-07-06T12:32:02;22.00;77.60
20479;DHT22;10398;52.490;13.434;2022-07-06T12:34:29;22.00;78.20
20479;DHT22;10398;52.490;13.434;2022-07-06T12:37:06;22.00;78.00
20479;DHT22;10398;52.490;13.434;2022-07-06T12:39:39;22.00;78.40
20479;DHT22;10398;52.490;13.434;2022-07-06T12:42:05;22.10;78.40
20479;DHT22;10398;52.490;13.434;2022-07-06T12:44:31;22.20;78.90
20479;DHT22;10398;52.490;13.434;2022-07-06T12:47:09;22.30;78.10
20479;DHT22;10398;52.490;13.434;2022-07-06T12:49:36;22.30;78.50
20479;DHT22;10398;52.490;13.434;2022-07-06T12:52:15;22.30;77.60
20479;DHT22;10398;52.490;13.434;2022-07-06T12:54:51;22.40;78.20
20479;DHT22;10398;52.490;13.434;2022-07-06T12:59:44;22.30;77.10
20479;DHT22;10398;52.490;13.434;2022-07-06T13:02:21;22.40;77.30
20479;DHT22;10398;52.490;13.434;2022-07-06T13:05:14;22.30;77.20
20479;DHT22;10398;52.490;13.434;2022-07-06T13:07:45;22.20;78.60
20479;DHT22;10398;52.490;13.434;2022-07-06T13:10:14;22.20;78.40
20479;DHT22;10398;52.490;13.434;2022-07-06T13:12:40;22.10;78.30
20479;DHT22;10398;52.490;13.434;2022-07-06T13:15:07;22.10;78.90
20479;DHT22;10398;52.490;13.434;2022-07-06T13:17:33;22.10;78.50
20479;DHT22;10398;52.490;13.434;2022-07-06T13:19:59;22.00;77.60
20479;DHT22;10398;52.490;13.434;2022-07-06T13:22:25;22.00;76.50
20479;DHT22;10398;52.490;13.434;2022-07-06T13:24:51;21.90;76.70
20479;DHT22;10398;52.490;13.434;2022-07-06T13:27:17;21.90;76.50
20479;DHT22;10398;52.490;13.434;2022-07-06T13:29:42;21.90;76.30
20479;DHT22;10398;52.490;13.434;2022-07-06T13:32:08;22.00;76.00
20479;DHT22;10398;52.490;13.434;2022-07-06T13:34:34;21.90;75.20
20479;DHT22;10398;52.490;13.434;2022-07-06T13:37:04;21.90;75.80
20479;DHT22;10398;52.490;13.434;2022-07-06T13:39:31;21.90;76.10
20479;DHT22;10398;52.490;13.434;2022-07-06T13:41:56;21.90;77.10
20479;DHT22;10398;52.490;13.434;2022-07-06T13:44:22;21.90;78.00
20479;DHT22;10398;52.490;13.434;2022-07-06T13:46:48;21.90;77.10
20479;DHT22;10398;52.490;13.434;2022-07-06T13:49:14;21.90;78.30
20479;DHT22;10398;52.490;13.434;2022-07-06T13:51:40;22.00;78.80
20479;DHT22;10398;52.490;13.434;2022-07-06T13:54:06;22.00;77.10
20479;DHT22;10398;52.490;13.434;2022-07-06T13:56:32;22.10;77.10
20479;DHT22;10398;52.490;13.434;2022-07-06T13:59:01;22.00;75.90
20479;DHT22;10398;52.490;13.434;2022-07-06T14:01:27;22.00;74.40
20479;DHT22;10398;52.490;13.434;2022-07-06T14:03:53;22.00;75.30
20479;DHT22;10398;52.490;13.434;2022-07-06T14:06:19;22.00;75.50
20479;DHT22;10398;52.490;13.434;2022-07-06T14:08:45;22.00;76.30
20479;DHT22;10398;52.490;13.434;2022-07-06T14:11:11;22.00;76.60
20479;DHT22;10398;52.490;13.434;2022-07-06T14:13:38;22.10;76.90
20479;DHT22;10398;52.490;13.434;2022-07-06T14:16:04;22.10;75.30
20479;DHT22;10398;52.490;13.434;2022-07-06T14:18:30;22.20;75.50
20479;DHT22;10398;52.490;13.434;2022-07-06T14:20:56;22.30;76.40
20479;DHT22;10398;52.490;13.434;2022-07-06T14:23:22;22.40;75.50
20479;DHT22;10398;52.490;13.434;2022-07-06T14:25:49;22.20;72.30
20479;DHT22;10398;52.490;13.434;2022-07-06T14:28:16;22.20;73.20
20479;DHT22;10398;52.490;13.434;2022-07-06T14:30:45;22.20;73.10
20479;DHT22;10398;52.490;13.434;2022-07-06T14:33:12;22.20;74.70
20479;DHT22;10398;52.490;13.434;2022-07-06T14:35:43;22.40;75.10
20479;DHT22;10398;52.490;13.434;2022-07-06T14:38:09;22.30;73.50
20479;DHT22;10398;52.490;13.434;2022-07-06T14:40:36;22.40;74.60
20479;DHT22;10398;52.490;13.434;2022-07-06T14:43:02;22.40;72.90
20479;DHT22;10398;52.490;13.434;2022-07-06T14:45:29;22.30;73.50
20479;DHT22;10398;52.490;13.434;2022-07-06T14:47:54;22.10;73.30
20479;DHT22;10398;52.490;13.434;2022-07-06T14:50:20;22.00;74.40
20479;DHT22;10398;52.490;13.434;2022-07-06T14:52:49;22.00;73.90
20479;DHT22;10398;52.490;13.434;2022-07-06T14:55:15;21.80;74.50
20479;DHT22;10398;52.490;13.434;2022-07-06T14:57:41;21.80;76.20
20479;DHT22;10398;52.490;13.434;2022-07-06T15:00:07;21.90;76.60
20479;DHT22;10398;52.490;13.434;2022-07-06T15:02:33;21.80;75.50
20479;DHT22;10398;52.490;13.434;2022-07-06T15:04:59;21.80;76.60
20479;DHT22;10398;52.490;13.434;2022-07-06T15:07:24;21.80;75.80
20479;DHT22;10398;52.490;13.434;2022-07-06T15:09:50;21.70;76.40
20479;DHT22;10398;52.490;13.434;2022-07-06T15:12:16;21.60;77.10
20479;DHT22;10398;52.490;13.434;2022-07-06T15:14:42;21.60;77.50
20479;DHT22;10398;52.490;13.434;2022-07-06T15:17:07;21.50;77.50
20479;DHT22;10398;52.490;13.434;2022-07-06T15:19:33;21.50;78.00
20479;DHT22;10398;52.490;13.434;2022-07-06T15:22:08;21.50;78.50
20479;DHT22;10398;52.490;13.434;2022-07-06T15:24:33;21.50;77.70
20479;DHT22;10398;52.490;13.434;2022-07-06T15:26:59;21.30;78.30